Nikishka, Alaska
Current Conditions -  °F | °C
As of 8:53 PM on Monday 20 Oct 2014 (Local Time) from PAEN Reporting Station
Light Rain Light Rain  
Wind Chill: -1°   Ceiling: 3300
Heat Index:   Visibility: 10mi
Dew Point:   Wind: 5mph
Humidity: 92%   Direction: 50°NE
Pressure: 29.17"   Gusts: NA
Location:  60.7377°N, 151.324°W
Report Text: PAEN 210453Z AUTO 05004KT 10SM -RA FEW023 OVC033 02/01 A2917 RMK AO2 UPB20E29RAB29 SLP881 P0000 T00170006 TSNO
Loading
Personal Weather Stations






























Interactive Weather Map
Tropical Storm Tracking
New forecast layout! Learn more

10-Day Weather Forecast

Advertisements
Track Severe Weather on mobile